Terminal Aerodrome Forecast
Issued by NWS

Home | Current Version | Previous Version | Text Only | Print | Product List | Glossary On
Versions: 1 2 3 4 5 6 7 8 9 10 11 12 13 14
000
FTUS41 KBTV 290520
TAFMSS
TAF
KMSS 290520Z 2906/3006 29004KT P6SM SKC
      TEMPO 2907/2910 2SM BR SCT001
     FM291200 VRB03KT P6SM SKC
     FM291700 21006KT P6SM FEW060=

USA.gov is the U.S. government's official web portal to all federal, state and local government web resources and services.